Terminal Aerodrome Forecast
Issued by NWS Caribou, ME

Home | Current Version | Previous Version | Text Only | Print | Product List | Glossary On
Versions: 1 2 3 4 5 6 7 8 9 10 11 12 13 14 15 16 17 18 19 20 21 22 23 24 25 26
969
FTUS41 KCAR 121128
TAFCAR
TAF
KCAR 121128Z 1212/1312 29008KT P6SM SCT030 BKN045
     FM122000 26007KT P6SM SCT035
     FM122300 VRB03KT P6SM SCT040
     FM130200 VRB03KT P6SM BKN035
     FM130600 10004KT P6SM VCSH OVC028=

USA.gov is the U.S. government's official web portal to all federal, state and local government web resources and services.